Tie Siding, WY (82084)

12:02 PM MDT on October 21, 2019 (GMT -0600)
Fish Creek Ranch | | Change Station
Active Advisory: High Wind Watch

Elev 8655 ft 41.01 °N, 105.61 °W | Updated 2 minutes ago

Mostly Cloudy
Mostly Cloudy
27 °F
Feels Like 18 °F
N
10
Wind Variable Wind from WNW
Gusts 26.0 mph

Today
High -- | Low -- °F
--% Chance of Precip.
Yesterday
High -- | Low -- °F
Precip. -- in
Pressure 29.98 in
Visibility 10.0 miles
Clouds Mostly Cloudy 6500 ft
Windchill 18 °F
Dew Point 18 °F
Humidity 70%
Rainfall 0.00 in
Snow Depth Not available.
7:19 AM 6:12 PM
Waning Gibbous, 47% visible
METAR KLAR 211753Z AUTO 32018KT 10SM BKN065 02/M07 A2999 RMK AO2 SLP150 T00221072 10022 21056 51007
Pressure 29.98 in
Visibility 10.0 miles
Clouds Mostly Cloudy 6500 ft
Windchill 18 °F
Dew Point 18 °F
Humidity 70%
Rainfall 0.00 in
Snow Depth Not available.
7:19 AM 6:12 PM
Waning Gibbous, 47% visible
METAR KLAR 211753Z AUTO 32018KT 10SM BKN065 02/M07 A2999 RMK AO2 SLP150 T00221072 10022 21056 51007

Get Your Daily Forecast Email!

Thanks for signing up!

Be on the lookout for a verification email in your inbox.

You'll start receiving severe weather alerts in your inbox..

×

10-Day Weather Forecast

Almanac

Astronomy

Oct. 21, 2019 Rise Set
Actual Time
Civil Twilight
Nautical Twilight
Astronomical Twilight
Moon
Length of Visible Light
Length of Day
Tomorrow will be .
, % of the Moon is Illuminated

Today's Extremes

State Highs State Lows

Community

WunderPhotos

Category 6

Welcome to Category 6. This is the collective home for Weather Underground's featured writeups by Dr. Jeff Masters (right), Bob Henson (left), Chris Burt, and other regular contributors.

Nearby

Air Quality

  Air Quality AQ Index Pollutant
Not available.

Snow Depth

Station Depth Elevation

Earthquake Activity

City Distance Mag. Time & Date
Minimum magnitude displayed is 2.5.

Coastal Water Temperatures

Place Temperature

Stations

Nearby Weather Stations

Station Location Temp. Windchill Dew Point Humidity Wind Precip. Elev Updated Type
                   

Watches & Warnings

High Wind Watch
Issued: 1:33 AM MDT Oct. 21, 2019 – National Weather Service

... High wind watch in effect from Tuesday morning through late
Tuesday night...

The National Weather Service in Cheyenne has issued a high wind
watch, which is in effect from Tuesday morning through late
Tuesday night.

* Timing... 6 am Tuesday through 6 am Wednesday

* winds... west winds of 35 to 45 mph sustained with gusts to 65
mph.

* Impacts... mainly to transportation. There is an increased risk
of blow overs to light weight and high profile vehicles,
including camping trailers.

Precautionary/preparedness actions...

A high wind watch means there is the potential for a hazardous
high wind event. Sustained winds of at least 40 mph... or gusts of
58 mph or stronger may occur. Continue to monitor the latest
forecasts.